sensor_id;sensor_type;location;lat;lon;timestamp;temperature;humidity
5520;DHT22;2782;52.362;10.012;2023-07-24T00:00:26;21.80;71.50
5520;DHT22;2782;52.362;10.012;2023-07-24T00:01:28;21.80;72.40
5520;DHT22;2782;52.362;10.012;2023-07-24T00:02:28;21.80;71.60
5520;DHT22;2782;52.362;10.012;2023-07-24T00:03:30;21.80;71.60
5520;DHT22;2782;52.362;10.012;2023-07-24T00:04:31;21.80;71.60
5520;DHT22;2782;52.362;10.012;2023-07-24T00:05:33;21.80;71.60
5520;DHT22;2782;52.362;10.012;2023-07-24T00:06:33;21.80;71.60
5520;DHT22;2782;52.362;10.012;2023-07-24T00:07:35;21.80;71.70
5520;DHT22;2782;52.362;10.012;2023-07-24T00:08:36;21.80;71.60
5520;DHT22;2782;52.362;10.012;2023-07-24T00:09:38;21.80;71.60
5520;DHT22;2782;52.362;10.012;2023-07-24T00:10:39;21.80;71.70
5520;DHT22;2782;52.362;10.012;2023-07-24T00:11:40;21.80;71.80
5520;DHT22;2782;52.362;10.012;2023-07-24T00:12:41;21.80;71.80
5520;DHT22;2782;52.362;10.012;2023-07-24T00:13:43;21.80;72.50
5520;DHT22;2782;52.362;10.012;2023-07-24T00:14:44;21.80;71.80
5520;DHT22;2782;52.362;10.012;2023-07-24T00:15:47;21.80;71.80
5520;DHT22;2782;52.362;10.012;2023-07-24T00:16:48;21.80;71.90
5520;DHT22;2782;52.362;10.012;2023-07-24T00:17:50;21.80;71.90
5520;DHT22;2782;52.362;10.012;2023-07-24T00:18:50;21.80;71.90
5520;DHT22;2782;52.362;10.012;2023-07-24T00:19:52;21.80;72.10
5520;DHT22;2782;52.362;10.012;2023-07-24T00:20:53;21.80;72.00
5520;DHT22;2782;52.362;10.012;2023-07-24T00:21:54;21.80;71.90
5520;DHT22;2782;52.362;10.012;2023-07-24T00:22:55;21.80;71.90
5520;DHT22;2782;52.362;10.012;2023-07-24T00:23:57;21.80;72.00
5520;DHT22;2782;52.362;10.012;2023-07-24T00:24:58;21.80;72.10
5520;DHT22;2782;52.362;10.012;2023-07-24T00:25:59;21.80;72.10
5520;DHT22;2782;52.362;10.012;2023-07-24T00:27:00;21.80;71.90
5520;DHT22;2782;52.362;10.012;2023-07-24T00:28:02;21.80;71.90
5520;DHT22;2782;52.362;10.012;2023-07-24T00:29:03;21.80;72.20
5520;DHT22;2782;52.362;10.012;2023-07-24T00:30:06;21.80;72.30
5520;DHT22;2782;52.362;10.012;2023-07-24T00:31:08;21.80;72.40
5520;DHT22;2782;52.362;10.012;2023-07-24T00:32:10;21.80;72.30
5520;DHT22;2782;52.362;10.012;2023-07-24T00:33:10;21.80;72.40
5520;DHT22;2782;52.362;10.012;2023-07-24T00:34:12;21.80;72.40
5520;DHT22;2782;52.362;10.012;2023-07-24T00:35:13;21.80;72.40
5520;DHT22;2782;52.362;10.012;2023-07-24T00:36:14;21.80;72.40
5520;DHT22;2782;52.362;10.012;2023-07-24T00:37:15;21.80;72.40
5520;DHT22;2782;52.362;10.012;2023-07-24T00:38:17;21.80;72.40
5520;DHT22;2782;52.362;10.012;2023-07-24T00:39:17;21.80;72.40
5520;DHT22;2782;52.362;10.012;2023-07-24T00:40:19;21.80;72.50
5520;DHT22;2782;52.362;10.012;2023-07-24T00:41:20;21.80;72.60
5520;DHT22;2782;52.362;10.012;2023-07-24T00:42:22;21.80;72.50
5520;DHT22;2782;52.362;10.012;2023-07-24T00:43:23;21.80;72.50
5520;DHT22;2782;52.362;10.012;2023-07-24T00:44:24;21.80;72.40
5520;DHT22;2782;52.362;10.012;2023-07-24T00:45:25;21.80;72.50
5520;DHT22;2782;52.362;10.012;2023-07-24T00:46:29;21.80;72.50
5520;DHT22;2782;52.362;10.012;2023-07-24T00:47:32;21.80;72.80
5520;DHT22;2782;52.362;10.012;2023-07-24T00:48:34;21.80;72.50
5520;DHT22;2782;52.362;10.012;2023-07-24T00:49:35;21.80;72.50
5520;DHT22;2782;52.362;10.012;2023-07-24T00:50:37;21.80;72.60
5520;DHT22;2782;52.362;10.012;2023-07-24T00:51:39;21.80;72.50
5520;DHT22;2782;52.362;10.012;2023-07-24T00:52:40;21.80;72.60
5520;DHT22;2782;52.362;10.012;2023-07-24T00:53:42;21.80;72.60
5520;DHT22;2782;52.362;10.012;2023-07-24T00:54:43;21.80;72.50
5520;DHT22;2782;52.362;10.012;2023-07-24T00:55:47;21.80;72.40
5520;DHT22;2782;52.362;10.012;2023-07-24T00:56:48;21.80;72.30
5520;DHT22;2782;52.362;10.012;2023-07-24T00:57:50;21.80;72.30
5520;DHT22;2782;52.362;10.012;2023-07-24T00:58:51;21.80;72.10
5520;DHT22;2782;52.362;10.012;2023-07-24T00:59:54;21.90;72.60
5520;DHT22;2782;52.362;10.012;2023-07-24T01:00:55;21.80;72.60
5520;DHT22;2782;52.362;10.012;2023-07-24T01:01:58;21.80;72.70
5520;DHT22;2782;52.362;10.012;2023-07-24T01:02:59;21.90;72.90
5520;DHT22;2782;52.362;10.012;2023-07-24T01:04:01;21.90;72.80
5520;DHT22;2782;52.362;10.012;2023-07-24T01:05:04;21.80;72.80
5520;DHT22;2782;52.362;10.012;2023-07-24T01:06:05;21.80;72.80
5520;DHT22;2782;52.362;10.012;2023-07-24T01:07:06;21.80;72.90
5520;DHT22;2782;52.362;10.012;2023-07-24T01:08:08;21.80;72.80
5520;DHT22;2782;52.362;10.012;2023-07-24T01:09:09;21.80;72.80
5520;DHT22;2782;52.362;10.012;2023-07-24T01:10:11;21.80;72.90
5520;DHT22;2782;52.362;10.012;2023-07-24T01:11:17;21.80;72.90
5520;DHT22;2782;52.362;10.012;2023-07-24T01:12:26;21.80;72.80
5520;DHT22;2782;52.362;10.012;2023-07-24T01:13:31;21.80;72.90
5520;DHT22;2782;52.362;10.012;2023-07-24T01:14:38;21.80;72.90
5520;DHT22;2782;52.362;10.012;2023-07-24T01:15:50;21.80;73.00
5520;DHT22;2782;52.362;10.012;2023-07-24T01:16:55;21.80;73.10
5520;DHT22;2782;52.362;10.012;2023-07-24T01:18:03;21.80;73.20
5520;DHT22;2782;52.362;10.012;2023-07-24T01:19:12;21.80;73.20
5520;DHT22;2782;52.362;10.012;2023-07-24T01:20:15;21.80;73.20
5520;DHT22;2782;52.362;10.012;2023-07-24T01:21:23;21.80;73.30
5520;DHT22;2782;52.362;10.012;2023-07-24T01:22:38;21.80;73.30
5520;DHT22;2782;52.362;10.012;2023-07-24T01:23:50;21.80;73.30
5520;DHT22;2782;52.362;10.012;2023-07-24T01:25:04;21.80;73.40
5520;DHT22;2782;52.362;10.012;2023-07-24T01:26:09;21.80;73.40
5520;DHT22;2782;52.362;10.012;2023-07-24T01:27:10;21.80;73.60
5520;DHT22;2782;52.362;10.012;2023-07-24T01:28:11;21.80;73.40
5520;DHT22;2782;52.362;10.012;2023-07-24T01:29:12;21.80;73.40
5520;DHT22;2782;52.362;10.012;2023-07-24T01:34:08;21.80;73.40
5520;DHT22;2782;52.362;10.012;2023-07-24T01:35:10;21.70;73.40
5520;DHT22;2782;52.362;10.012;2023-07-24T01:36:13;21.70;73.50
5520;DHT22;2782;52.362;10.012;2023-07-24T01:37:16;21.80;73.60
5520;DHT22;2782;52.362;10.012;2023-07-24T01:38:17;21.70;73.50
5520;DHT22;2782;52.362;10.012;2023-07-24T01:39:20;21.80;73.60
5520;DHT22;2782;52.362;10.012;2023-07-24T01:40:22;21.80;73.70
5520;DHT22;2782;52.362;10.012;2023-07-24T01:41:26;21.80;73.70
5520;DHT22;2782;52.362;10.012;2023-07-24T01:42:28;21.80;73.70
5520;DHT22;2782;52.362;10.012;2023-07-24T01:43:30;21.80;73.70
5520;DHT22;2782;52.362;10.012;2023-07-24T01:44:32;21.80;73.70
5520;DHT22;2782;52.362;10.012;2023-07-24T01:45:33;21.80;73.70
5520;DHT22;2782;52.362;10.012;2023-07-24T01:46:34;21.80;73.60
5520;DHT22;2782;52.362;10.012;2023-07-24T01:47:36;21.80;73.50
5520;DHT22;2782;52.362;10.012;2023-07-24T01:48:38;21.80;73.70
5520;DHT22;2782;52.362;10.012;2023-07-24T01:49:39;21.80;73.70
5520;DHT22;2782;52.362;10.012;2023-07-24T01:50:40;21.80;73.60
5520;DHT22;2782;52.362;10.012;2023-07-24T01:51:41;21.80;73.50
5520;DHT22;2782;52.362;10.012;2023-07-24T01:52:44;21.80;73.60
5520;DHT22;2782;52.362;10.012;2023-07-24T01:53:46;21.80;73.60
5520;DHT22;2782;52.362;10.012;2023-07-24T01:54:47;21.80;73.60
5520;DHT22;2782;52.362;10.012;2023-07-24T01:55:49;21.80;73.60
5520;DHT22;2782;52.362;10.012;2023-07-24T01:56:52;21.80;73.60
5520;DHT22;2782;52.362;10.012;2023-07-24T01:57:53;21.80;73.60
5520;DHT22;2782;52.362;10.012;2023-07-24T01:58:55;21.80;73.60
5520;DHT22;2782;52.362;10.012;2023-07-24T01:59:55;21.80;73.60
5520;DHT22;2782;52.362;10.012;2023-07-24T02:00:57;21.80;73.60
5520;DHT22;2782;52.362;10.012;2023-07-24T02:05:05;21.80;73.80
5520;DHT22;2782;52.362;10.012;2023-07-24T02:06:07;21.80;73.60
5520;DHT22;2782;52.362;10.012;2023-07-24T02:07:08;21.80;73.60
5520;DHT22;2782;52.362;10.012;2023-07-24T02:08:09;21.80;73.60
5520;DHT22;2782;52.362;10.012;2023-07-24T02:09:10;21.80;73.60
5520;DHT22;2782;52.362;10.012;2023-07-24T02:10:11;21.80;73.60
5520;DHT22;2782;52.362;10.012;2023-07-24T02:11:13;21.70;74.20
5520;DHT22;2782;52.362;10.012;2023-07-24T02:12:15;21.80;74.40
5520;DHT22;2782;52.362;10.012;2023-07-24T02:13:16;21.80;73.60
5520;DHT22;2782;52.362;10.012;2023-07-24T02:14:17;21.80;73.60
5520;DHT22;2782;52.362;10.012;2023-07-24T02:15:20;21.80;73.60
5520;DHT22;2782;52.362;10.012;2023-07-24T02:16:21;21.80;73.70
5520;DHT22;2782;52.362;10.012;2023-07-24T02:17:23;21.80;73.60
5520;DHT22;2782;52.362;10.012;2023-07-24T02:18:24;21.80;73.70
5520;DHT22;2782;52.362;10.012;2023-07-24T02:19:25;21.80;73.70
5520;DHT22;2782;52.362;10.012;2023-07-24T02:20:26;21.80;73.60
5520;DHT22;2782;52.362;10.012;2023-07-24T02:21:28;21.80;73.60
5520;DHT22;2782;52.362;10.012;2023-07-24T02:22:28;21.80;73.60
5520;DHT22;2782;52.362;10.012;2023-07-24T02:23:30;21.80;73.60
5520;DHT22;2782;52.362;10.012;2023-07-24T02:24:31;21.80;73.60
5520;DHT22;2782;52.362;10.012;2023-07-24T02:25:32;21.80;73.60
5520;DHT22;2782;52.362;10.012;2023-07-24T02:26:33;21.80;73.50
5520;DHT22;2782;52.362;10.012;2023-07-24T02:27:36;21.80;73.70
5520;DHT22;2782;52.362;10.012;2023-07-24T02:28:37;21.80;73.60
5520;DHT22;2782;52.362;10.012;2023-07-24T02:29:38;21.80;73.70
5520;DHT22;2782;52.362;10.012;2023-07-24T02:30:39;21.80;73.70
5520;DHT22;2782;52.362;10.012;2023-07-24T02:31:41;21.80;73.70
5520;DHT22;2782;52.362;10.012;2023-07-24T02:32:41;21.80;73.70
5520;DHT22;2782;52.362;10.012;2023-07-24T02:33:43;21.80;73.70
5520;DHT22;2782;52.362;10.012;2023-07-24T02:34:44;21.80;73.70
5520;DHT22;2782;52.362;10.012;2023-07-24T02:35:45;21.80;73.70
5520;DHT22;2782;52.362;10.012;2023-07-24T02:36:46;21.80;73.70
5520;DHT22;2782;52.362;10.012;2023-07-24T02:37:48;21.80;73.70
5520;DHT22;2782;52.362;10.012;2023-07-24T02:38:48;21.80;73.70
5520;DHT22;2782;52.362;10.012;2023-07-24T02:39:49;21.80;73.70
5520;DHT22;2782;52.362;10.012;2023-07-24T02:40:52;21.80;73.70
5520;DHT22;2782;52.362;10.012;2023-07-24T02:41:53;21.80;73.70
5520;DHT22;2782;52.362;10.012;2023-07-24T02:42:56;21.80;73.80
5520;DHT22;2782;52.362;10.012;2023-07-24T02:43:57;21.80;73.80
5520;DHT22;2782;52.362;10.012;2023-07-24T02:44:58;21.80;73.80
5520;DHT22;2782;52.362;10.012;2023-07-24T02:46:00;21.80;73.70
5520;DHT22;2782;52.362;10.012;2023-07-24T02:47:01;21.80;73.70
5520;DHT22;2782;52.362;10.012;2023-07-24T02:48:04;21.80;73.70
5520;DHT22;2782;52.362;10.012;2023-07-24T02:49:05;21.80;73.70
5520;DHT22;2782;52.362;10.012;2023-07-24T02:50:07;21.80;73.80
5520;DHT22;2782;52.362;10.012;2023-07-24T02:51:08;21.80;73.80
5520;DHT22;2782;52.362;10.012;2023-07-24T02:52:09;21.80;73.70
5520;DHT22;2782;52.362;10.012;2023-07-24T02:53:10;21.80;73.80
5520;DHT22;2782;52.362;10.012;2023-07-24T02:54:12;21.80;73.80
5520;DHT22;2782;52.362;10.012;2023-07-24T02:55:13;21.80;73.80
5520;DHT22;2782;52.362;10.012;2023-07-24T02:56:14;21.80;73.90
5520;DHT22;2782;52.362;10.012;2023-07-24T02:57:15;21.80;73.80
5520;DHT22;2782;52.362;10.012;2023-07-24T02:58:18;21.80;73.90
5520;DHT22;2782;52.362;10.012;2023-07-24T02:59:19;21.80;73.90
5520;DHT22;2782;52.362;10.012;2023-07-24T03:00:20;21.80;73.90
5520;DHT22;2782;52.362;10.012;2023-07-24T03:01:21;21.80;73.90
5520;DHT22;2782;52.362;10.012;2023-07-24T03:02:23;21.80;73.90
5520;DHT22;2782;52.362;10.012;2023-07-24T03:03:23;21.80;73.90
5520;DHT22;2782;52.362;10.012;2023-07-24T03:04:25;21.80;74.00
5520;DHT22;2782;52.362;10.012;2023-07-24T03:05:26;21.80;74.00
5520;DHT22;2782;52.362;10.012;2023-07-24T03:06:27;21.80;73.90
5520;DHT22;2782;52.362;10.012;2023-07-24T03:07:28;21.80;74.10
5520;DHT22;2782;52.362;10.012;2023-07-24T03:08:29;21.80;74.10
5520;DHT22;2782;52.362;10.012;2023-07-24T03:09:30;21.80;74.10
5520;DHT22;2782;52.362;10.012;2023-07-24T03:10:32;21.80;73.90
5520;DHT22;2782;52.362;10.012;2023-07-24T03:11:32;21.80;73.90
5520;DHT22;2782;52.362;10.012;2023-07-24T03:12:34;21.80;73.90
5520;DHT22;2782;52.362;10.012;2023-07-24T03:13:36;21.80;73.90
5520;DHT22;2782;52.362;10.012;2023-07-24T03:14:41;21.80;74.00
5520;DHT22;2782;52.362;10.012;2023-07-24T03:15:42;21.80;73.90
5520;DHT22;2782;52.362;10.012;2023-07-24T03:16:42;21.80;73.90
5520;DHT22;2782;52.362;10.012;2023-07-24T03:17:44;21.80;74.00
5520;DHT22;2782;52.362;10.012;2023-07-24T03:18:45;21.80;74.00
5520;DHT22;2782;52.362;10.012;2023-07-24T03:19:48;21.80;74.00
5520;DHT22;2782;52.362;10.012;2023-07-24T03:20:49;21.80;74.00
5520;DHT22;2782;52.362;10.012;2023-07-24T03:21:50;21.70;73.80
5520;DHT22;2782;52.362;10.012;2023-07-24T03:22:51;21.80;73.90
5520;DHT22;2782;52.362;10.012;2023-07-24T03:23:53;21.80;74.00
5520;DHT22;2782;52.362;10.012;2023-07-24T03:24:53;21.80;74.70
5520;DHT22;2782;52.362;10.012;2023-07-24T03:25:55;21.80;74.00
5520;DHT22;2782;52.362;10.012;2023-07-24T03:26:56;21.80;74.00
5520;DHT22;2782;52.362;10.012;2023-07-24T03:27:57;21.80;74.10
5520;DHT22;2782;52.362;10.012;2023-07-24T03:29:00;21.80;74.00
5520;DHT22;2782;52.362;10.012;2023-07-24T03:30:02;21.70;74.00
5520;DHT22;2782;52.362;10.012;2023-07-24T03:31:03;21.80;74.10
5520;DHT22;2782;52.362;10.012;2023-07-24T03:32:05;21.80;74.00
5520;DHT22;2782;52.362;10.012;2023-07-24T03:33:06;21.80;74.10
5520;DHT22;2782;52.362;10.012;2023-07-24T03:34:08;21.80;74.10
5520;DHT22;2782;52.362;10.012;2023-07-24T03:35:09;21.80;74.20
5520;DHT22;2782;52.362;10.012;2023-07-24T03:36:10;21.80;74.20
5520;DHT22;2782;52.362;10.012;2023-07-24T03:37:12;21.80;74.20
5520;DHT22;2782;52.362;10.012;2023-07-24T03:38:13;21.80;74.20
5520;DHT22;2782;52.362;10.012;2023-07-24T03:39:14;21.70;74.10
5520;DHT22;2782;52.362;10.012;2023-07-24T03:40:15;21.80;74.20
5520;DHT22;2782;52.362;10.012;2023-07-24T03:41:17;21.80;74.20
5520;DHT22;2782;52.362;10.012;2023-07-24T03:42:25;21.80;74.20
5520;DHT22;2782;52.362;10.012;2023-07-24T03:43:27;21.80;74.20
5520;DHT22;2782;52.362;10.012;2023-07-24T03:44:29;21.80;74.30
5520;DHT22;2782;52.362;10.012;2023-07-24T03:45:31;21.80;74.30
5520;DHT22;2782;52.362;10.012;2023-07-24T03:46:32;21.80;74.20
5520;DHT22;2782;52.362;10.012;2023-07-24T03:47:34;21.70;74.10
5520;DHT22;2782;52.362;10.012;2023-07-24T03:48:35;21.70;74.10
5520;DHT22;2782;52.362;10.012;2023-07-24T03:49:37;21.80;74.20
5520;DHT22;2782;52.362;10.012;2023-07-24T03:50:37;21.70;74.10
5520;DHT22;2782;52.362;10.012;2023-07-24T03:51:38;21.80;74.20
5520;DHT22;2782;52.362;10.012;2023-07-24T03:52:40;21.70;74.20
5520;DHT22;2782;52.362;10.012;2023-07-24T03:53:41;21.70;74.20
5520;DHT22;2782;52.362;10.012;2023-07-24T03:54:42;21.70;74.20
5520;DHT22;2782;52.362;10.012;2023-07-24T03:55:43;21.70;74.20
5520;DHT22;2782;52.362;10.012;2023-07-24T03:56:44;21.80;74.30
5520;DHT22;2782;52.362;10.012;2023-07-24T03:57:45;21.70;74.30
5520;DHT22;2782;52.362;10.012;2023-07-24T03:58:47;21.70;74.30
5520;DHT22;2782;52.362;10.012;2023-07-24T03:59:49;21.70;74.20
5520;DHT22;2782;52.362;10.012;2023-07-24T04:00:50;21.70;74.30
5520;DHT22;2782;52.362;10.012;2023-07-24T04:01:51;21.70;74.30
5520;DHT22;2782;52.362;10.012;2023-07-24T04:02:53;21.70;74.30
5520;DHT22;2782;52.362;10.012;2023-07-24T04:03:53;21.80;74.30
5520;DHT22;2782;52.362;10.012;2023-07-24T04:04:55;21.70;74.30
5520;DHT22;2782;52.362;10.012;2023-07-24T04:05:56;21.70;74.50
5520;DHT22;2782;52.362;10.012;2023-07-24T04:06:57;21.70;74.40
5520;DHT22;2782;52.362;10.012;2023-07-24T04:07:58;21.70;74.50
5520;DHT22;2782;52.362;10.012;2023-07-24T04:09:00;21.70;74.50
5520;DHT22;2782;52.362;10.012;2023-07-24T04:10:00;21.70;74.60
5520;DHT22;2782;52.362;10.012;2023-07-24T04:11:02;21.70;74.60
5520;DHT22;2782;52.362;10.012;2023-07-24T04:12:05;21.70;74.40
5520;DHT22;2782;52.362;10.012;2023-07-24T04:13:07;21.70;74.60
5520;DHT22;2782;52.362;10.012;2023-07-24T04:14:08;21.70;74.70
5520;DHT22;2782;52.362;10.012;2023-07-24T04:15:11;21.70;74.60
5520;DHT22;2782;52.362;10.012;2023-07-24T04:16:12;21.70;74.60
5520;DHT22;2782;52.362;10.012;2023-07-24T04:17:13;21.70;74.80
5520;DHT22;2782;52.362;10.012;2023-07-24T04:18:14;21.70;74.70
5520;DHT22;2782;52.362;10.012;2023-07-24T04:19:16;21.70;74.60
5520;DHT22;2782;52.362;10.012;2023-07-24T04:20:17;21.70;74.70
5520;DHT22;2782;52.362;10.012;2023-07-24T04:21:18;21.70;74.70
5520;DHT22;2782;52.362;10.012;2023-07-24T04:22:19;21.70;74.80
5520;DHT22;2782;52.362;10.012;2023-07-24T04:23:20;21.70;74.80
5520;DHT22;2782;52.362;10.012;2023-07-24T04:24:21;21.70;74.70
5520;DHT22;2782;52.362;10.012;2023-07-24T04:25:23;21.70;74.80
5520;DHT22;2782;52.362;10.012;2023-07-24T04:26:24;21.70;75.00
5520;DHT22;2782;52.362;10.012;2023-07-24T04:27:25;21.70;74.90
5520;DHT22;2782;52.362;10.012;2023-07-24T04:28:26;21.70;75.10
5520;DHT22;2782;52.362;10.012;2023-07-24T04:29:28;21.70;75.10
5520;DHT22;2782;52.362;10.012;2023-07-24T04:30:30;21.70;75.00
5520;DHT22;2782;52.362;10.012;2023-07-24T04:31:31;21.70;75.10
5520;DHT22;2782;52.362;10.012;2023-07-24T04:32:32;21.70;75.10
5520;DHT22;2782;52.362;10.012;2023-07-24T04:33:33;21.70;75.00
5520;DHT22;2782;52.362;10.012;2023-07-24T04:34:34;21.70;75.10
5520;DHT22;2782;52.362;10.012;2023-07-24T04:35:36;21.70;75.10
5520;DHT22;2782;52.362;10.012;2023-07-24T04:36:37;21.70;75.10
5520;DHT22;2782;52.362;10.012;2023-07-24T04:37:38;21.70;75.30
5520;DHT22;2782;52.362;10.012;2023-07-24T04:38:39;21.70;75.20
5520;DHT22;2782;52.362;10.012;2023-07-24T04:39:41;21.70;75.60
5520;DHT22;2782;52.362;10.012;2023-07-24T04:40:43;21.70;75.80
5520;DHT22;2782;52.362;10.012;2023-07-24T04:41:45;21.80;76.00
5520;DHT22;2782;52.362;10.012;2023-07-24T04:42:46;21.70;75.80
5520;DHT22;2782;52.362;10.012;2023-07-24T04:43:47;21.80;76.00
5520;DHT22;2782;52.362;10.012;2023-07-24T04:44:48;21.80;75.90
5520;DHT22;2782;52.362;10.012;2023-07-24T04:45:53;21.70;75.60
5520;DHT22;2782;52.362;10.012;2023-07-24T04:46:54;21.70;75.80
5520;DHT22;2782;52.362;10.012;2023-07-24T04:47:56;21.70;76.90
5520;DHT22;2782;52.362;10.012;2023-07-24T04:48:56;21.70;77.70
5520;DHT22;2782;52.362;10.012;2023-07-24T04:49:58;21.70;77.80
5520;DHT22;2782;52.362;10.012;2023-07-24T04:50:59;21.70;77.10
5520;DHT22;2782;52.362;10.012;2023-07-24T04:52:00;21.70;77.10
5520;DHT22;2782;52.362;10.012;2023-07-24T04:53:01;21.70;77.10
5520;DHT22;2782;52.362;10.012;2023-07-24T04:54:03;21.70;76.90
5520;DHT22;2782;52.362;10.012;2023-07-24T04:55:04;21.70;76.70
5520;DHT22;2782;52.362;10.012;2023-07-24T04:56:06;21.70;76.50
5520;DHT22;2782;52.362;10.012;2023-07-24T04:57:07;21.70;76.50
5520;DHT22;2782;52.362;10.012;2023-07-24T04:58:09;21.70;76.60
5520;DHT22;2782;52.362;10.012;2023-07-24T04:59:09;21.70;76.70
5520;DHT22;2782;52.362;10.012;2023-07-24T05:00:12;21.80;76.90
5520;DHT22;2782;52.362;10.012;2023-07-24T05:01:14;21.80;77.00
5520;DHT22;2782;52.362;10.012;2023-07-24T05:02:15;21.80;76.80
5520;DHT22;2782;52.362;10.012;2023-07-24T05:03:17;21.80;77.00
5520;DHT22;2782;52.362;10.012;2023-07-24T05:04:18;21.80;77.20
5520;DHT22;2782;52.362;10.012;2023-07-24T05:05:20;21.80;77.20
5520;DHT22;2782;52.362;10.012;2023-07-24T05:06:20;21.80;76.80
5520;DHT22;2782;52.362;10.012;2023-07-24T05:07:23;21.80;76.70
5520;DHT22;2782;52.362;10.012;2023-07-24T05:08:24;21.80;77.10
5520;DHT22;2782;52.362;10.012;2023-07-24T05:09:25;21.80;76.70
5520;DHT22;2782;52.362;10.012;2023-07-24T05:10:26;21.80;76.60
5520;DHT22;2782;52.362;10.012;2023-07-24T05:11:27;21.90;77.70
5520;DHT22;2782;52.362;10.012;2023-07-24T05:12:29;21.90;77.90
5520;DHT22;2782;52.362;10.012;2023-07-24T05:13:29;21.90;78.30
5520;DHT22;2782;52.362;10.012;2023-07-24T05:14:31;21.90;77.70
5520;DHT22;2782;52.362;10.012;2023-07-24T05:15:32;21.90;77.50
5520;DHT22;2782;52.362;10.012;2023-07-24T05:16:35;21.90;76.90
5520;DHT22;2782;52.362;10.012;2023-07-24T05:17:35;22.00;77.30
5520;DHT22;2782;52.362;10.012;2023-07-24T05:18:37;22.00;76.70
5520;DHT22;2782;52.362;10.012;2023-07-24T05:19:38;22.00;76.70
5520;DHT22;2782;52.362;10.012;2023-07-24T05:20:42;22.00;76.70
5520;DHT22;2782;52.362;10.012;2023-07-24T05:21:43;22.10;76.40
5520;DHT22;2782;52.362;10.012;2023-07-24T05:22:45;22.10;76.40
5520;DHT22;2782;52.362;10.012;2023-07-24T05:23:46;22.10;76.30
5520;DHT22;2782;52.362;10.012;2023-07-24T05:24:47;22.10;76.00
5520;DHT22;2782;52.362;10.012;2023-07-24T05:25:56;22.10;75.90
5520;DHT22;2782;52.362;10.012;2023-07-24T05:26:58;22.10;76.10
5520;DHT22;2782;52.362;10.012;2023-07-24T05:27:58;22.10;76.20
5520;DHT22;2782;52.362;10.012;2023-07-24T05:29:00;22.10;76.20
5520;DHT22;2782;52.362;10.012;2023-07-24T05:30:01;22.10;76.10
5520;DHT22;2782;52.362;10.012;2023-07-24T05:31:03;22.10;76.10
5520;DHT22;2782;52.362;10.012;2023-07-24T05:32:06;22.10;76.30
5520;DHT22;2782;52.362;10.012;2023-07-24T05:33:07;22.10;76.20
5520;DHT22;2782;52.362;10.012;2023-07-24T05:34:08;22.10;76.20
5520;DHT22;2782;52.362;10.012;2023-07-24T05:35:10;22.10;76.20
5520;DHT22;2782;52.362;10.012;2023-07-24T05:36:10;22.10;76.40
5520;DHT22;2782;52.362;10.012;2023-07-24T05:37:11;22.10;76.40
5520;DHT22;2782;52.362;10.012;2023-07-24T05:38:13;22.10;76.80
5520;DHT22;2782;52.362;10.012;2023-07-24T05:39:13;22.10;76.40
5520;DHT22;2782;52.362;10.012;2023-07-24T05:40:15;22.20;76.20
5520;DHT22;2782;52.362;10.012;2023-07-24T05:41:16;22.10;77.00
5520;DHT22;2782;52.362;10.012;2023-07-24T05:42:18;22.10;76.70
5520;DHT22;2782;52.362;10.012;2023-07-24T05:43:18;22.10;76.50
5520;DHT22;2782;52.362;10.012;2023-07-24T05:44:20;22.20;76.40
5520;DHT22;2782;52.362;10.012;2023-07-24T05:45:21;22.10;76.20
5520;DHT22;2782;52.362;10.012;2023-07-24T05:46:22;22.10;76.40
5520;DHT22;2782;52.362;10.012;2023-07-24T05:47:24;22.20;76.30
5520;DHT22;2782;52.362;10.012;2023-07-24T05:48:25;22.10;76.40
5520;DHT22;2782;52.362;10.012;2023-07-24T05:49:27;22.10;76.50
5520;DHT22;2782;52.362;10.012;2023-07-24T05:50:27;22.10;76.50
5520;DHT22;2782;52.362;10.012;2023-07-24T05:51:29;22.10;76.50
5520;DHT22;2782;52.362;10.012;2023-07-24T05:52:30;22.10;76.40
5520;DHT22;2782;52.362;10.012;2023-07-24T05:53:31;22.10;76.50
5520;DHT22;2782;52.362;10.012;2023-07-24T05:54:32;22.10;76.40
5520;DHT22;2782;52.362;10.012;2023-07-24T05:55:34;22.10;76.60
5520;DHT22;2782;52.362;10.012;2023-07-24T05:56:34;22.10;76.60
5520;DHT22;2782;52.362;10.012;2023-07-24T05:57:36;22.10;76.70
5520;DHT22;2782;52.362;10.012;2023-07-24T05:58:37;22.10;76.60
5520;DHT22;2782;52.362;10.012;2023-07-24T05:59:38;22.10;76.60
5520;DHT22;2782;52.362;10.012;2023-07-24T06:00:39;22.10;76.80
5520;DHT22;2782;52.362;10.012;2023-07-24T06:01:41;22.10;77.30
5520;DHT22;2782;52.362;10.012;2023-07-24T06:02:43;22.10;77.10
5520;DHT22;2782;52.362;10.012;2023-07-24T06:03:45;22.10;77.30
5520;DHT22;2782;52.362;10.012;2023-07-24T06:04:46;22.00;77.90
5520;DHT22;2782;52.362;10.012;2023-07-24T06:05:51;22.00;77.50
5520;DHT22;2782;52.362;10.012;2023-07-24T06:06:52;22.10;78.60
5520;DHT22;2782;52.362;10.012;2023-07-24T06:07:54;22.00;77.60
5520;DHT22;2782;52.362;10.012;2023-07-24T06:08:54;22.00;77.70
5520;DHT22;2782;52.362;10.012;2023-07-24T06:09:56;22.00;77.80
5520;DHT22;2782;52.362;10.012;2023-07-24T06:10:57;22.00;77.90
5520;DHT22;2782;52.362;10.012;2023-07-24T06:11:58;22.00;77.80
5520;DHT22;2782;52.362;10.012;2023-07-24T06:12:59;22.00;78.10
5520;DHT22;2782;52.362;10.012;2023-07-24T06:14:01;22.00;78.00
5520;DHT22;2782;52.362;10.012;2023-07-24T06:15:02;22.00;77.80
5520;DHT22;2782;52.362;10.012;2023-07-24T06:16:04;22.00;78.10
5520;DHT22;2782;52.362;10.012;2023-07-24T06:17:05;22.00;78.00
5520;DHT22;2782;52.362;10.012;2023-07-24T06:18:08;22.00;78.30
5520;DHT22;2782;52.362;10.012;2023-07-24T06:19:08;22.00;78.30
5520;DHT22;2782;52.362;10.012;2023-07-24T06:20:09;22.00;78.30
5520;DHT22;2782;52.362;10.012;2023-07-24T06:21:11;22.00;78.30
5520;DHT22;2782;52.362;10.012;2023-07-24T06:22:12;21.90;78.30
5520;DHT22;2782;52.362;10.012;2023-07-24T06:23:13;22.00;78.50
5520;DHT22;2782;52.362;10.012;2023-07-24T06:24:14;22.00;78.90
5520;DHT22;2782;52.362;10.012;2023-07-24T06:25:16;21.90;78.70
5520;DHT22;2782;52.362;10.012;2023-07-24T06:26:17;22.00;78.70
5520;DHT22;2782;52.362;10.012;2023-07-24T06:27:18;22.00;78.50
5520;DHT22;2782;52.362;10.012;2023-07-24T06:28:19;22.00;78.10
5520;DHT22;2782;52.362;10.012;2023-07-24T06:29:20;21.90;78.40
5520;DHT22;2782;52.362;10.012;2023-07-24T06:30:23;22.00;78.60
5520;DHT22;2782;52.362;10.012;2023-07-24T06:31:25;22.00;78.50
5520;DHT22;2782;52.362;10.012;2023-07-24T06:32:25;22.00;78.30
5520;DHT22;2782;52.362;10.012;2023-07-24T06:33:28;21.90;78.90
5520;DHT22;2782;52.362;10.012;2023-07-24T06:34:29;21.90;78.00
5520;DHT22;2782;52.362;10.012;2023-07-24T06:35:31;22.00;78.30
5520;DHT22;2782;52.362;10.012;2023-07-24T06:36:31;21.90;78.10
5520;DHT22;2782;52.362;10.012;2023-07-24T06:37:33;21.90;78.00
5520;DHT22;2782;52.362;10.012;2023-07-24T06:38:34;21.90;78.10
5520;DHT22;2782;52.362;10.012;2023-07-24T06:39:35;21.90;78.00
5520;DHT22;2782;52.362;10.012;2023-07-24T06:40:36;22.00;78.30
5520;DHT22;2782;52.362;10.012;2023-07-24T06:41:38;22.00;78.50
5520;DHT22;2782;52.362;10.012;2023-07-24T06:42:38;21.90;78.40